Terminal Aerodrome Forecast
Issued by NWS

Home | Current Version | Previous Version | Graphics & Text | Print | Product List | Glossary On
Versions: 1 2 3 4 5 6 7 8 9 10 11 12 13 14 15 16 17 18 19 20 21 22
000
FTUS43 KLOT 282103 AAA
TAFGYY
TAF AMD
KGYY 282103Z 2821/2918 18012G22KT P6SM SCT040 BKN250
     FM290300 19012KT P6SM VCTS BKN040CB BKN250
     FM290600 22009KT P6SM FEW035 SCT250
     FM291500 24017G25KT P6SM FEW050=

USA.gov is the U.S. government's official web portal to all federal, state and local government web resources and services.